Time;durP1;ratioP1;P1;durP2;ratioP2;P2;SDS_P1;SDS_P2;PMS_P1;PMS_P2;Temp;Humidity;BMP_temperature;BMP_pressure;BME280_temperature;BME280_humidity;BME280_pressure;Samples;Min_cycle;Max_cycle;Signal;HPM_P1;HPM_P2
2021/12/09 00:00:11;;;;;;;;;;;3.10;99.90;;;;;;8394233;28;19924;-69
2021/12/09 00:04:16;;;;;;;;;;;3.10;99.90;;;;;;8370618;28;19928;-69
2021/12/09 00:08:17;;;;;;;;;;;3.10;99.90;;;;;;8389935;28;19931;-69
2021/12/09 00:12:21;;;;;;;;;;;3.10;99.90;;;;;;8375543;28;19951;-69
2021/12/09 00:16:23;;;;;;;;;;;3.00;99.90;;;;;;8389912;28;20315;-70
2021/12/09 00:20:25;;;;;;;;;;;3.00;99.90;;;;;;8385762;28;19933;-69
2021/12/09 00:24:26;;;;;;;;;;;3.00;99.90;;;;;;8385598;28;19942;-69
2021/12/09 00:28:28;;;;;;;;;;;3.00;99.90;;;;;;8386842;28;19956;-69
2021/12/09 00:32:30;;;;;;;;;;;3.00;99.90;;;;;;8380465;28;19948;-70
2021/12/09 00:36:42;;;;;;;;;;;3.00;99.90;;;;;;8384687;28;19932;-69
2021/12/09 00:40:44;;;;;;;;;;;2.90;99.90;;;;;;8388124;28;19931;-69
2021/12/09 00:44:46;;;;;;;;;;;2.90;99.90;;;;;;8382384;28;20023;-69
2021/12/09 00:48:48;;;;;;;;;;;2.90;99.90;;;;;;8377930;28;19947;-70
2021/12/09 00:52:49;;;;;;;;;;;2.90;99.90;;;;;;8378024;28;19940;-69
2021/12/09 00:56:51;;;;;;;;;;;2.90;99.90;;;;;;8385616;28;19964;-69
2021/12/09 01:00:52;;;;;;;;;;;2.90;99.90;;;;;;8385831;28;19936;-69
2021/12/09 01:04:54;;;;;;;;;;;2.90;99.90;;;;;;8378222;28;19924;-70
2021/12/09 01:08:56;;;;;;;;;;;2.90;99.90;;;;;;8375800;28;19932;-69
2021/12/09 01:12:58;;;;;;;;;;;2.90;99.90;;;;;;8384046;28;19932;-69
2021/12/09 01:16:59;;;;;;;;;;;2.80;99.90;;;;;;8383751;28;19971;-69
2021/12/09 01:21:01;;;;;;;;;;;2.90;99.90;;;;;;8369385;28;20367;-70
2021/12/09 01:25:03;;;;;;;;;;;2.90;99.90;;;;;;8376222;28;19924;-69
2021/12/09 01:29:14;;;;;;;;;;;2.90;99.90;;;;;;8366753;28;19929;-69
2021/12/09 01:33:15;;;;;;;;;;;2.90;99.90;;;;;;8387497;28;19951;-69
2021/12/09 01:37:17;;;;;;;;;;;3.00;99.90;;;;;;8364958;28;20172;-69
2021/12/09 01:41:19;;;;;;;;;;;3.00;99.90;;;;;;8382979;28;20359;-69
2021/12/09 01:45:20;;;;;;;;;;;3.10;99.90;;;;;;8362172;28;19983;-69
2021/12/09 01:49:22;;;;;;;;;;;3.10;99.90;;;;;;8384460;28;20383;-69
2021/12/09 01:53:23;;;;;;;;;;;3.10;99.90;;;;;;8374518;28;19924;-69
2021/12/09 01:57:25;;;;;;;;;;;3.10;99.90;;;;;;8382852;28;19959;-69
2021/12/09 02:01:27;;;;;;;;;;;3.10;99.90;;;;;;8382351;28;20077;-69
2021/12/09 02:05:29;;;;;;;;;;;3.10;99.90;;;;;;8377719;28;20300;-69
2021/12/09 02:09:31;;;;;;;;;;;3.00;99.90;;;;;;8384952;28;20383;-69
2021/12/09 02:13:32;;;;;;;;;;;3.00;99.90;;;;;;8384573;28;20351;-69
2021/12/09 02:17:34;;;;;;;;;;;3.00;99.90;;;;;;8379694;28;19924;-69
2021/12/09 02:21:36;;;;;;;;;;;3.00;99.90;;;;;;8381763;28;19925;-69
2021/12/09 02:25:39;;;;;;;;;;;2.90;99.90;;;;;;8382132;28;19924;-69
2021/12/09 02:29:41;;;;;;;;;;;2.90;99.90;;;;;;8386681;28;19975;-70
2021/12/09 02:33:43;;;;;;;;;;;2.90;99.90;;;;;;8368801;28;20315;-69
2021/12/09 02:37:45;;;;;;;;;;;2.80;99.90;;;;;;8376793;28;19944;-69
2021/12/09 02:41:48;;;;;;;;;;;2.80;99.90;;;;;;8373090;28;19971;-69
2021/12/09 02:45:52;;;;;;;;;;;2.70;99.90;;;;;;8381446;28;19936;-69
2021/12/09 02:49:54;;;;;;;;;;;2.70;99.90;;;;;;8381367;28;20320;-69
2021/12/09 02:53:55;;;;;;;;;;;2.70;99.90;;;;;;8383435;28;19928;-69
2021/12/09 02:58:02;;;;;;;;;;;2.70;99.90;;;;;;8389886;28;19979;-70
2021/12/09 03:02:05;;;;;;;;;;;2.60;99.90;;;;;;8382584;28;19971;-69
2021/12/09 03:06:07;;;;;;;;;;;2.60;99.90;;;;;;8386324;28;19933;-69
2021/12/09 03:10:19;;;;;;;;;;;2.50;99.90;;;;;;8386392;28;19968;-69
2021/12/09 03:14:24;;;;;;;;;;;2.50;99.90;;;;;;8384625;28;20295;-69
2021/12/09 03:18:26;;;;;;;;;;;2.50;99.90;;;;;;8393583;28;20396;-69
2021/12/09 03:22:27;;;;;;;;;;;2.50;99.90;;;;;;8386172;28;19925;-69
2021/12/09 03:26:32;;;;;;;;;;;2.40;99.90;;;;;;8384429;28;19931;-69
2021/12/09 03:30:34;;;;;;;;;;;2.40;99.90;;;;;;8388532;28;19924;-69
2021/12/09 03:34:36;;;;;;;;;;;2.40;99.90;;;;;;8385254;28;19935;-69
2021/12/09 03:38:37;;;;;;;;;;;2.40;99.90;;;;;;8387097;28;19979;-69
2021/12/09 03:42:40;;;;;;;;;;;2.30;99.90;;;;;;8370105;28;19929;-69
2021/12/09 03:46:41;;;;;;;;;;;2.30;99.90;;;;;;8386848;28;20244;-69
2021/12/09 03:50:45;;;;;;;;;;;2.30;99.90;;;;;;8383602;28;20422;-69
2021/12/09 03:54:47;;;;;;;;;;;2.20;99.90;;;;;;8383411;28;19928;-70
2021/12/09 03:58:49;;;;;;;;;;;2.20;99.90;;;;;;8377293;28;19951;-69
2021/12/09 04:02:50;;;;;;;;;;;2.20;99.90;;;;;;8382145;28;19976;-69
2021/12/09 04:06:52;;;;;;;;;;;2.20;99.90;;;;;;8389862;28;19925;-69
2021/12/09 04:10:54;;;;;;;;;;;2.20;99.90;;;;;;8381956;28;19932;-69
2021/12/09 04:14:56;;;;;;;;;;;2.20;99.90;;;;;;8378422;28;19936;-69
2021/12/09 04:18:57;;;;;;;;;;;2.20;99.90;;;;;;8377070;28;19932;-69
2021/12/09 04:22:59;;;;;;;;;;;2.20;99.90;;;;;;8379770;28;20008;-69
2021/12/09 04:27:01;;;;;;;;;;;2.20;99.90;;;;;;8381485;28;19967;-69
2021/12/09 04:31:08;;;;;;;;;;;2.20;99.90;;;;;;8381066;28;20063;-69
2021/12/09 04:35:10;;;;;;;;;;;2.20;99.90;;;;;;8382383;28;19933;-69
2021/12/09 04:39:12;;;;;;;;;;;2.20;99.90;;;;;;8363251;28;20345;-69
2021/12/09 04:43:14;;;;;;;;;;;2.20;99.90;;;;;;8377863;28;20317;-69
2021/12/09 04:47:15;;;;;;;;;;;2.20;99.90;;;;;;8364870;28;19935;-69
2021/12/09 04:51:17;;;;;;;;;;;2.20;99.90;;;;;;8361309;28;19928;-69
2021/12/09 04:55:19;;;;;;;;;;;2.20;99.90;;;;;;8378699;28;19964;-69
2021/12/09 04:59:20;;;;;;;;;;;2.20;99.90;;;;;;8385404;28;19929;-69
2021/12/09 05:03:22;;;;;;;;;;;2.20;99.90;;;;;;8374611;28;19986;-69
2021/12/09 05:07:24;;;;;;;;;;;2.20;99.90;;;;;;8388345;28;20278;-69
2021/12/09 05:11:47;;;;;;;;;;;2.20;99.90;;;;;;8377685;28;19971;-69
2021/12/09 05:15:49;;;;;;;;;;;2.10;99.90;;;;;;8386525;28;19936;-69
2021/12/09 05:19:51;;;;;;;;;;;2.10;99.90;;;;;;8384495;28;20424;-69
2021/12/09 05:23:53;;;;;;;;;;;2.10;99.90;;;;;;8381139;28;19924;-69
2021/12/09 05:27:54;;;;;;;;;;;2.10;99.90;;;;;;8358708;28;19925;-69
2021/12/09 05:32:08;;;;;;;;;;;2.10;99.90;;;;;;8392053;28;19967;-70
2021/12/09 05:36:10;;;;;;;;;;;2.10;99.90;;;;;;8357361;28;19925;-69
2021/12/09 05:40:12;;;;;;;;;;;2.00;99.90;;;;;;8382899;28;20041;-69
2021/12/09 05:44:14;;;;;;;;;;;2.00;99.90;;;;;;8387720;28;19924;-69
2021/12/09 05:48:16;;;;;;;;;;;2.00;99.90;;;;;;8383861;28;19925;-69
2021/12/09 05:52:18;;;;;;;;;;;2.00;99.90;;;;;;8357458;28;19925;-69
2021/12/09 05:56:20;;;;;;;;;;;1.90;99.90;;;;;;8379557;28;19936;-69
2021/12/09 06:00:21;;;;;;;;;;;1.90;99.90;;;;;;8368571;28;20303;-70
2021/12/09 06:04:23;;;;;;;;;;;1.90;99.90;;;;;;8376900;28;19924;-69
2021/12/09 06:08:26;;;;;;;;;;;1.90;99.90;;;;;;8383816;28;20285;-69
2021/12/09 06:12:28;;;;;;;;;;;1.90;99.90;;;;;;8383363;28;20384;-70
2021/12/09 06:16:29;;;;;;;;;;;1.80;99.90;;;;;;8377857;28;20407;-69
2021/12/09 06:20:31;;;;;;;;;;;1.80;99.90;;;;;;8387767;28;20010;-69
2021/12/09 06:24:33;;;;;;;;;;;1.80;99.90;;;;;;8379504;28;19960;-70
2021/12/09 06:28:34;;;;;;;;;;;1.80;99.90;;;;;;8371657;28;19924;-69
2021/12/09 06:32:37;;;;;;;;;;;1.80;99.90;;;;;;8385026;28;19940;-69
2021/12/09 06:36:40;;;;;;;;;;;1.80;99.90;;;;;;8383055;28;19924;-69
2021/12/09 06:40:42;;;;;;;;;;;1.80;99.90;;;;;;8385970;28;19924;-69
2021/12/09 06:44:44;;;;;;;;;;;1.80;99.90;;;;;;8388175;28;20638;-69
2021/12/09 06:48:46;;;;;;;;;;;1.80;99.90;;;;;;8381802;28;19928;-69
2021/12/09 06:52:47;;;;;;;;;;;1.80;99.90;;;;;;8368352;28;19956;-69
2021/12/09 06:56:49;;;;;;;;;;;1.80;99.90;;;;;;8384718;28;19924;-69
2021/12/09 07:00:52;;;;;;;;;;;1.80;99.90;;;;;;8379300;28;20338;-69
2021/12/09 07:04:54;;;;;;;;;;;1.80;99.90;;;;;;8382967;28;19928;-69
2021/12/09 07:08:59;;;;;;;;;;;1.80;99.90;;;;;;8384166;28;19931;-69
2021/12/09 07:13:03;;;;;;;;;;;1.80;99.90;;;;;;8381015;28;19928;-69
2021/12/09 07:17:04;;;;;;;;;;;1.80;99.90;;;;;;8383105;28;20398;-69
2021/12/09 07:21:06;;;;;;;;;;;1.80;99.90;;;;;;8382649;28;19956;-69
2021/12/09 07:25:08;;;;;;;;;;;1.80;99.90;;;;;;8367602;28;19939;-69
2021/12/09 07:29:09;;;;;;;;;;;1.80;99.90;;;;;;8378367;28;19939;-69
2021/12/09 07:33:11;;;;;;;;;;;1.80;99.90;;;;;;8378122;28;20068;-69
2021/12/09 07:37:13;;;;;;;;;;;1.80;99.90;;;;;;8381231;28;19925;-69
2021/12/09 07:41:15;;;;;;;;;;;1.80;99.90;;;;;;8382408;28;19928;-69
2021/12/09 07:45:17;;;;;;;;;;;1.80;99.90;;;;;;8357961;28;20355;-69
2021/12/09 07:49:19;;;;;;;;;;;1.80;99.90;;;;;;8398928;28;19959;-69
2021/12/09 07:53:22;;;;;;;;;;;1.80;99.90;;;;;;8383579;28;19935;-69
2021/12/09 07:57:24;;;;;;;;;;;1.80;99.90;;;;;;8357352;28;19925;-69
2021/12/09 08:01:26;;;;;;;;;;;1.80;99.90;;;;;;8354517;28;20022;-69
2021/12/09 08:05:29;;;;;;;;;;;1.90;99.90;;;;;;8366772;28;19985;-69
2021/12/09 08:09:30;;;;;;;;;;;1.90;99.90;;;;;;8383666;28;20284;-69
2021/12/09 08:13:32;;;;;;;;;;;1.90;99.90;;;;;;8353565;28;19967;-69
2021/12/09 08:21:39;;;;;;;;;;;2.10;99.90;;;;;;8378441;28;19966;-69
2021/12/09 08:25:41;;;;;;;;;;;2.20;99.90;;;;;;8380089;28;20399;-69
2021/12/09 08:29:43;;;;;;;;;;;2.20;99.90;;;;;;8365940;28;19987;-69
2021/12/09 08:33:44;;;;;;;;;;;2.30;99.90;;;;;;8362784;28;20363;-69
2021/12/09 08:38:07;;;;;;;;;;;2.30;99.90;;;;;;8382755;28;20402;-69
2021/12/09 08:42:08;;;;;;;;;;;2.40;99.90;;;;;;8381533;28;20085;-69
2021/12/09 08:46:10;;;;;;;;;;;2.50;99.90;;;;;;8383041;28;20004;-69
2021/12/09 08:50:13;;;;;;;;;;;2.60;99.90;;;;;;8383891;28;19935;-69
2021/12/09 08:54:15;;;;;;;;;;;2.60;99.90;;;;;;8379768;28;19971;-70
2021/12/09 08:58:16;;;;;;;;;;;2.70;99.90;;;;;;8384638;28;19928;-69
2021/12/09 09:02:19;;;;;;;;;;;2.70;99.90;;;;;;8380637;28;19978;-69
2021/12/09 09:06:20;;;;;;;;;;;2.80;99.90;;;;;;8370778;28;19936;-69
2021/12/09 09:10:23;;;;;;;;;;;2.80;99.90;;;;;;8354219;28;20272;-69
2021/12/09 09:14:25;;;;;;;;;;;2.90;99.90;;;;;;8380642;28;19964;-69
2021/12/09 09:18:26;;;;;;;;;;;2.90;99.90;;;;;;8381518;28;19967;-70
2021/12/09 09:22:28;;;;;;;;;;;3.00;99.90;;;;;;8381307;28;19935;-68
2021/12/09 09:26:31;;;;;;;;;;;3.10;99.90;;;;;;8380177;28;19928;-69
2021/12/09 09:30:36;;;;;;;;;;;3.30;99.90;;;;;;8380993;28;19932;-68
2021/12/09 09:34:37;;;;;;;;;;;3.40;99.90;;;;;;8380060;28;19932;-68
2021/12/09 09:38:40;;;;;;;;;;;3.50;99.90;;;;;;8378910;28;19963;-69
2021/12/09 09:46:44;;;;;;;;;;;3.60;99.90;;;;;;8362311;28;19955;-68
2021/12/09 09:50:45;;;;;;;;;;;3.60;99.90;;;;;;8370780;28;20323;-69
2021/12/09 09:54:47;;;;;;;;;;;3.60;99.90;;;;;;8369820;28;20213;-68
2021/12/09 09:58:51;;;;;;;;;;;3.70;99.90;;;;;;8370316;28;19971;-69
2021/12/09 10:02:54;;;;;;;;;;;3.70;99.90;;;;;;8370321;28;20011;-68
2021/12/09 10:06:55;;;;;;;;;;;3.70;99.90;;;;;;8377457;28;19978;-68
2021/12/09 10:10:57;;;;;;;;;;;3.80;99.90;;;;;;8361806;28;19928;-69
2021/12/09 10:14:58;;;;;;;;;;;3.80;99.90;;;;;;8377388;28;20368;-69
2021/12/09 10:19:00;;;;;;;;;;;3.80;99.90;;;;;;8377710;28;19964;-68
2021/12/09 10:23:17;;;;;;;;;;;3.90;99.90;;;;;;8379078;28;19986;-69
2021/12/09 10:27:27;;;;;;;;;;;3.80;99.90;;;;;;8375709;28;20384;-68
2021/12/09 10:31:31;;;;;;;;;;;3.80;99.90;;;;;;8377292;28;20371;-68
2021/12/09 10:35:32;;;;;;;;;;;3.80;99.90;;;;;;8390168;28;19943;-69
2021/12/09 10:39:43;;;;;;;;;;;3.80;99.90;;;;;;8375395;28;20281;-69
2021/12/09 10:43:49;;;;;;;;;;;3.90;99.90;;;;;;8357251;28;20059;-69
2021/12/09 10:47:56;;;;;;;;;;;3.90;99.90;;;;;;8377042;28;20311;-68
2021/12/09 10:52:00;;;;;;;;;;;4.00;99.90;;;;;;8376919;28;20039;-68
2021/12/09 10:56:04;;;;;;;;;;;4.10;99.90;;;;;;8376713;28;19924;-69
2021/12/09 11:00:17;;;;;;;;;;;4.10;99.90;;;;;;8377613;28;20402;-69
2021/12/09 11:04:23;;;;;;;;;;;4.10;99.90;;;;;;8376350;28;19928;-69
2021/12/09 11:08:24;;;;;;;;;;;4.20;99.90;;;;;;8378776;28;20081;-69
2021/12/09 11:12:27;;;;;;;;;;;4.30;99.90;;;;;;8375567;28;19956;-68
2021/12/09 11:16:30;;;;;;;;;;;4.40;99.90;;;;;;8378308;28;19985;-69
2021/12/09 11:20:42;;;;;;;;;;;4.50;99.90;;;;;;8368333;28;19978;-69
2021/12/09 11:24:47;;;;;;;;;;;4.50;99.90;;;;;;8383155;28;19931;-68
2021/12/09 11:28:53;;;;;;;;;;;4.60;99.90;;;;;;8381906;28;19979;-68
2021/12/09 11:32:59;;;;;;;;;;;4.70;99.90;;;;;;8382937;28;19924;-68
2021/12/09 11:37:04;;;;;;;;;;;4.70;99.90;;;;;;8383900;28;19968;-68
2021/12/09 11:41:05;;;;;;;;;;;4.80;99.90;;;;;;8382812;28;19931;-68
2021/12/09 11:45:14;;;;;;;;;;;4.80;99.90;;;;;;8383611;28;19933;-68
2021/12/09 11:49:16;;;;;;;;;;;4.90;99.90;;;;;;8398543;28;19972;-69
2021/12/09 11:53:19;;;;;;;;;;;4.90;99.90;;;;;;8384037;28;20407;-69
2021/12/09 11:57:37;;;;;;;;;;;5.00;99.90;;;;;;8398848;28;19971;-68
2021/12/09 12:06:46;;;;;;;;;;;5.00;99.90;;;;;;8381993;28;19977;-68
2021/12/09 12:15:46;;;;;;;;;;;5.00;99.90;;;;;;8248863;28;19926;-69
2021/12/09 12:24:46;;;;;;;;;;;5.00;99.90;;;;;;8383919;28;20051;-69
2021/12/09 12:29:10;;;;;;;;;;;5.10;99.90;;;;;;8383003;28;19928;-69
2021/12/09 12:33:25;;;;;;;;;;;5.10;99.90;;;;;;8375213;28;20389;-68
2021/12/09 12:37:54;;;;;;;;;;;5.10;99.90;;;;;;8381615;28;19929;-68
2021/12/09 12:41:57;;;;;;;;;;;5.10;99.90;;;;;;8384016;28;19986;-68
2021/12/09 12:50:12;;;;;;;;;;;5.10;99.90;;;;;;8385627;28;20015;-68
2021/12/09 12:54:16;;;;;;;;;;;5.20;99.90;;;;;;8382704;28;19971;-69
2021/12/09 12:58:18;;;;;;;;;;;5.20;99.90;;;;;;8383847;28;19963;-69
2021/12/09 13:06:48;;;;;;;;;;;5.40;99.90;;;;;;8380865;28;20478;-69
2021/12/09 13:15:29;;;;;;;;;;;5.50;99.90;;;;;;8384515;28;19950;-69
2021/12/09 13:23:36;;;;;;;;;;;5.60;99.90;;;;;;8384873;28;19990;-69
2021/12/09 13:32:11;;;;;;;;;;;5.50;99.90;;;;;;8383896;28;19925;-68
2021/12/09 13:45:48;;;;;;;;;;;5.50;99.90;;;;;;8380534;28;20058;-68
2021/12/09 13:49:37;;;;;;;;;;;5.60;99.90;;;;;;8384407;28;19925;-68
2021/12/09 13:58:00;;;;;;;;;;;5.60;99.90;;;;;;8382407;28;20396;-68
2021/12/09 14:02:12;;;;;;;;;;;5.60;99.90;;;;;;8379978;28;19975;-69
2021/12/09 14:06:15;;;;;;;;;;;5.50;99.90;;;;;;8381720;28;19935;-69
2021/12/09 14:10:23;;;;;;;;;;;5.50;99.90;;;;;;8381442;28;19963;-68
2021/12/09 14:14:26;;;;;;;;;;;5.50;99.90;;;;;;8380172;28;20015;-69
2021/12/09 14:19:02;;;;;;;;;;;5.50;99.90;;;;;;8382740;28;19932;-68
2021/12/09 14:22:55;;;;;;;;;;;5.40;99.90;;;;;;8380664;28;19968;-69
2021/12/09 14:26:58;;;;;;;;;;;5.40;99.90;;;;;;8381231;28;20352;-69
2021/12/09 14:31:01;;;;;;;;;;;5.40;99.90;;;;;;8378778;28;19974;-69
2021/12/09 14:35:04;;;;;;;;;;;5.40;99.90;;;;;;8372113;28;19995;-69
2021/12/09 14:39:15;;;;;;;;;;;5.40;99.90;;;;;;8379306;28;20307;-69
2021/12/09 14:43:18;;;;;;;;;;;5.40;99.90;;;;;;8380411;28;20015;-68
2021/12/09 14:47:20;;;;;;;;;;;5.50;99.90;;;;;;8361059;28;19977;-69
2021/12/09 14:51:24;;;;;;;;;;;5.50;99.90;;;;;;8382071;28;19985;-68
2021/12/09 14:55:28;;;;;;;;;;;5.50;99.90;;;;;;8386769;28;19936;-69
2021/12/09 14:59:33;;;;;;;;;;;5.50;99.90;;;;;;8386229;28;19964;-68
2021/12/09 15:03:42;;;;;;;;;;;5.50;99.90;;;;;;8357849;28;20384;-68
2021/12/09 15:08:05;;;;;;;;;;;5.50;99.90;;;;;;8389097;28;20004;-68
2021/12/09 15:12:08;;;;;;;;;;;5.50;99.90;;;;;;8386692;28;19959;-69
2021/12/09 15:16:10;;;;;;;;;;;5.50;99.90;;;;;;8385692;28;19925;-68
2021/12/09 15:20:12;;;;;;;;;;;5.50;99.90;;;;;;8386588;28;19933;-68
2021/12/09 15:24:14;;;;;;;;;;;5.50;99.90;;;;;;8378651;28;19975;-69
2021/12/09 15:28:17;;;;;;;;;;;5.40;99.90;;;;;;8381655;28;19982;-68
2021/12/09 15:32:19;;;;;;;;;;;5.40;99.90;;;;;;8351784;28;19955;-68
2021/12/09 15:36:25;;;;;;;;;;;5.40;99.90;;;;;;8370641;28;19975;-69
2021/12/09 15:40:28;;;;;;;;;;;5.40;99.90;;;;;;8382693;28;19924;-68
2021/12/09 15:44:33;;;;;;;;;;;5.50;99.90;;;;;;8362398;28;20022;-68
2021/12/09 15:48:37;;;;;;;;;;;5.50;99.90;;;;;;8379843;28;19956;-68
2021/12/09 15:52:46;;;;;;;;;;;5.50;99.90;;;;;;8381304;28;20368;-69
2021/12/09 15:57:00;;;;;;;;;;;5.50;99.90;;;;;;8363719;28;19972;-69
2021/12/09 16:01:04;;;;;;;;;;;5.50;99.90;;;;;;8380455;28;19961;-69
2021/12/09 16:05:06;;;;;;;;;;;5.50;99.90;;;;;;8384345;28;19925;-68
2021/12/09 16:09:12;;;;;;;;;;;5.50;99.90;;;;;;8384078;28;19936;-68
2021/12/09 16:13:14;;;;;;;;;;;5.50;99.90;;;;;;8384375;28;19967;-69
2021/12/09 16:17:20;;;;;;;;;;;5.50;99.90;;;;;;8354487;28;20039;-69
2021/12/09 16:21:22;;;;;;;;;;;5.50;99.90;;;;;;8381637;28;20347;-68
2021/12/09 16:25:23;;;;;;;;;;;5.60;99.90;;;;;;8383762;28;20371;-68
2021/12/09 16:29:25;;;;;;;;;;;5.60;99.90;;;;;;8384298;28;20020;-68
2021/12/09 16:33:27;;;;;;;;;;;5.60;99.90;;;;;;8382561;28;19999;-69
2021/12/09 16:37:29;;;;;;;;;;;5.60;99.90;;;;;;8382094;28;19952;-69
2021/12/09 16:41:31;;;;;;;;;;;5.60;99.90;;;;;;8379545;28;20406;-68
2021/12/09 16:45:35;;;;;;;;;;;5.60;99.90;;;;;;8362595;28;19963;-69
2021/12/09 16:49:37;;;;;;;;;;;5.60;99.90;;;;;;8381970;28;19939;-68
2021/12/09 16:53:49;;;;;;;;;;;5.60;99.90;;;;;;8382567;28;19924;-69
2021/12/09 16:57:53;;;;;;;;;;;5.60;99.90;;;;;;8384626;28;19968;-68
2021/12/09 17:01:56;;;;;;;;;;;5.60;99.90;;;;;;8377525;28;19984;-68
2021/12/09 17:05:58;;;;;;;;;;;5.60;99.90;;;;;;8383654;28;19924;-68
2021/12/09 17:10:00;;;;;;;;;;;5.60;99.90;;;;;;8394615;28;19931;-68
2021/12/09 17:14:03;;;;;;;;;;;5.60;99.90;;;;;;8378650;28;20684;-68
2021/12/09 17:18:05;;;;;;;;;;;5.60;99.90;;;;;;8391613;28;19935;-68
2021/12/09 17:22:06;;;;;;;;;;;5.60;99.90;;;;;;8381261;28;20020;-68
2021/12/09 17:26:08;;;;;;;;;;;5.60;99.90;;;;;;8379325;28;19964;-69
2021/12/09 17:30:10;;;;;;;;;;;5.60;99.90;;;;;;8394468;28;20398;-68
2021/12/09 17:34:17;;;;;;;;;;;5.60;99.90;;;;;;8384161;28;19955;-68
2021/12/09 17:38:19;;;;;;;;;;;5.60;99.90;;;;;;8369748;28;20004;-68
2021/12/09 17:42:20;;;;;;;;;;;5.60;99.90;;;;;;8389641;28;19964;-68
2021/12/09 17:46:22;;;;;;;;;;;5.60;99.90;;;;;;8378231;28;19993;-69
2021/12/09 17:50:25;;;;;;;;;;;5.60;99.90;;;;;;8376617;28;19928;-69
2021/12/09 17:54:26;;;;;;;;;;;5.60;99.90;;;;;;8361013;28;20376;-69
2021/12/09 17:58:30;;;;;;;;;;;5.60;99.90;;;;;;8372393;28;19925;-68
2021/12/09 18:02:34;;;;;;;;;;;5.60;99.90;;;;;;8376959;28;19963;-68
2021/12/09 18:06:35;;;;;;;;;;;5.60;99.90;;;;;;8378521;28;19924;-68
2021/12/09 18:10:38;;;;;;;;;;;5.50;99.90;;;;;;8379823;28;19976;-69
2021/12/09 18:14:42;;;;;;;;;;;5.50;99.90;;;;;;8376166;28;19947;-69
2021/12/09 18:18:44;;;;;;;;;;;5.50;99.90;;;;;;8369990;28;19946;-68
2021/12/09 18:22:49;;;;;;;;;;;5.50;99.90;;;;;;8368510;28;22394;-69
2021/12/09 18:26:50;;;;;;;;;;;5.50;99.90;;;;;;8373390;28;19928;-69
2021/12/09 18:30:54;;;;;;;;;;;5.50;99.90;;;;;;8375785;28;19963;-68
2021/12/09 18:34:57;;;;;;;;;;;5.50;99.90;;;;;;8373454;28;19932;-68
2021/12/09 18:38:59;;;;;;;;;;;5.50;99.90;;;;;;8371518;28;19994;-68
2021/12/09 18:43:01;;;;;;;;;;;5.50;99.90;;;;;;8358389;28;19983;-68
2021/12/09 18:47:02;;;;;;;;;;;5.50;99.90;;;;;;8376261;28;20388;-68
2021/12/09 18:51:09;;;;;;;;;;;5.50;99.90;;;;;;8367210;28;19928;-68
2021/12/09 18:55:20;;;;;;;;;;;5.40;99.90;;;;;;8375355;28;20011;-68
2021/12/09 18:59:22;;;;;;;;;;;5.40;99.90;;;;;;8374369;28;20360;-68
2021/12/09 19:03:24;;;;;;;;;;;5.30;99.90;;;;;;8376055;28;20020;-68
2021/12/09 19:07:26;;;;;;;;;;;5.30;99.90;;;;;;8376669;28;19976;-69
2021/12/09 19:11:28;;;;;;;;;;;5.30;99.90;;;;;;8367433;28;19976;-68
2021/12/09 19:15:30;;;;;;;;;;;5.30;99.90;;;;;;8372958;28;20288;-68
2021/12/09 19:19:32;;;;;;;;;;;5.30;99.90;;;;;;8376813;28;20010;-68
2021/12/09 19:23:33;;;;;;;;;;;5.20;99.90;;;;;;8376674;28;19986;-69
2021/12/09 19:27:35;;;;;;;;;;;5.20;99.90;;;;;;8376493;28;19928;-68
2021/12/09 19:31:37;;;;;;;;;;;5.10;99.90;;;;;;8377238;28;19932;-69
2021/12/09 19:35:39;;;;;;;;;;;5.00;99.90;;;;;;8375335;28;20367;-68
2021/12/09 19:39:40;;;;;;;;;;;5.00;99.90;;;;;;8381747;28;20297;-68
2021/12/09 19:43:42;;;;;;;;;;;4.90;99.90;;;;;;8369580;28;19924;-68
2021/12/09 19:47:44;;;;;;;;;;;4.90;99.90;;;;;;8376659;28;20134;-68
2021/12/09 19:51:48;;;;;;;;;;;4.80;99.90;;;;;;8371150;28;19986;-68
2021/12/09 19:55:50;;;;;;;;;;;4.70;99.90;;;;;;8370166;28;19986;-68
2021/12/09 19:59:51;;;;;;;;;;;4.70;99.90;;;;;;8379707;28;19975;-68
2021/12/09 20:03:53;;;;;;;;;;;4.60;99.90;;;;;;8376706;28;19939;-68
2021/12/09 20:07:55;;;;;;;;;;;4.60;99.90;;;;;;8378541;28;19935;-68
2021/12/09 20:11:56;;;;;;;;;;;4.50;99.90;;;;;;8381005;28;19987;-68
2021/12/09 20:15:58;;;;;;;;;;;4.40;99.90;;;;;;8379086;28;19982;-68
2021/12/09 20:20:00;;;;;;;;;;;4.40;99.90;;;;;;8379665;28;19925;-68
2021/12/09 20:24:03;;;;;;;;;;;4.40;99.90;;;;;;8377269;28;19932;-68
2021/12/09 20:28:05;;;;;;;;;;;4.40;99.90;;;;;;8361500;28;19933;-68
2021/12/09 20:32:09;;;;;;;;;;;4.30;99.90;;;;;;8373568;28;20419;-68
2021/12/09 20:36:11;;;;;;;;;;;4.30;99.90;;;;;;8380733;28;19939;-68
2021/12/09 20:40:14;;;;;;;;;;;4.30;99.90;;;;;;8379675;28;19968;-68
2021/12/09 20:44:15;;;;;;;;;;;4.30;99.90;;;;;;8377292;28;20372;-68
2021/12/09 20:48:17;;;;;;;;;;;4.30;99.90;;;;;;8393533;28;19974;-68
2021/12/09 20:52:19;;;;;;;;;;;4.30;99.90;;;;;;8378975;28;20345;-68
2021/12/09 20:56:21;;;;;;;;;;;4.30;99.90;;;;;;8381594;28;20020;-68
2021/12/09 21:00:23;;;;;;;;;;;4.30;99.90;;;;;;8377482;28;20059;-68
2021/12/09 21:04:25;;;;;;;;;;;4.40;99.90;;;;;;8360556;28;19995;-69
2021/12/09 21:08:27;;;;;;;;;;;4.40;99.90;;;;;;8362617;28;20039;-68
2021/12/09 21:12:31;;;;;;;;;;;4.40;99.90;;;;;;8377748;28;19924;-68
2021/12/09 21:16:33;;;;;;;;;;;4.40;99.90;;;;;;8374871;28;19959;-69
2021/12/09 21:20:36;;;;;;;;;;;4.50;99.90;;;;;;8370374;28;19968;-69
2021/12/09 21:24:38;;;;;;;;;;;4.50;99.90;;;;;;8379106;28;19963;-68
2021/12/09 21:28:42;;;;;;;;;;;4.50;99.90;;;;;;8363650;28;19956;-68
2021/12/09 21:32:44;;;;;;;;;;;4.60;99.90;;;;;;8377886;28;19968;-68
2021/12/09 21:36:48;;;;;;;;;;;4.60;99.90;;;;;;8350265;28;20336;-68
2021/12/09 21:40:50;;;;;;;;;;;4.70;99.90;;;;;;8378992;28;19967;-68
2021/12/09 21:44:51;;;;;;;;;;;4.70;99.90;;;;;;8381126;28;20300;-68
2021/12/09 21:48:53;;;;;;;;;;;4.70;99.90;;;;;;8378336;28;19925;-68
2021/12/09 21:52:55;;;;;;;;;;;4.70;99.90;;;;;;8378797;28;19940;-68
2021/12/09 21:56:58;;;;;;;;;;;4.70;99.90;;;;;;8379269;28;20828;-68
2021/12/09 22:01:00;;;;;;;;;;;4.60;99.90;;;;;;8378770;28;19971;-69
2021/12/09 22:05:02;;;;;;;;;;;4.60;99.90;;;;;;8383807;28;20375;-68
2021/12/09 22:09:05;;;;;;;;;;;4.50;99.90;;;;;;8381420;28;20339;-68
2021/12/09 22:13:09;;;;;;;;;;;4.50;99.90;;;;;;8388275;28;20209;-69
2021/12/09 22:17:15;;;;;;;;;;;4.50;99.90;;;;;;8390322;28;20371;-68
2021/12/09 22:21:18;;;;;;;;;;;4.50;99.90;;;;;;8376195;28;19932;-68
2021/12/09 22:25:19;;;;;;;;;;;4.40;99.90;;;;;;8382767;28;20338;-69
2021/12/09 22:29:25;;;;;;;;;;;4.40;99.90;;;;;;8383457;28;19952;-68
2021/12/09 22:33:26;;;;;;;;;;;4.40;99.90;;;;;;8386895;28;19963;-68
2021/12/09 22:37:32;;;;;;;;;;;4.40;99.90;;;;;;8378615;28;19925;-68
2021/12/09 22:41:34;;;;;;;;;;;4.30;99.90;;;;;;8389900;28;19944;-68
2021/12/09 22:45:35;;;;;;;;;;;4.30;99.90;;;;;;8387184;28;19968;-69
2021/12/09 22:49:39;;;;;;;;;;;4.30;99.90;;;;;;8384372;28;19933;-69
2021/12/09 22:53:44;;;;;;;;;;;4.30;99.90;;;;;;8370614;28;19936;-68
2021/12/09 22:57:46;;;;;;;;;;;4.30;99.90;;;;;;8390753;28;20406;-68
2021/12/09 23:01:48;;;;;;;;;;;4.20;99.90;;;;;;8387597;28;19947;-68
2021/12/09 23:05:51;;;;;;;;;;;4.30;99.90;;;;;;8364319;28;19947;-68
2021/12/09 23:09:52;;;;;;;;;;;4.20;99.90;;;;;;8383017;28;20309;-68
2021/12/09 23:14:01;;;;;;;;;;;4.20;99.90;;;;;;8384892;28;19925;-68
2021/12/09 23:18:08;;;;;;;;;;;4.10;99.90;;;;;;8389995;28;19932;-69
2021/12/09 23:22:10;;;;;;;;;;;4.10;99.90;;;;;;8387632;28;20291;-68
2021/12/09 23:26:12;;;;;;;;;;;4.00;99.90;;;;;;8393349;28;19983;-68
2021/12/09 23:30:14;;;;;;;;;;;4.00;99.90;;;;;;8382757;28;20419;-68
2021/12/09 23:34:16;;;;;;;;;;;3.90;99.90;;;;;;8387803;28;19940;-68
2021/12/09 23:38:19;;;;;;;;;;;3.90;99.90;;;;;;8382173;28;19939;-68
2021/12/09 23:42:20;;;;;;;;;;;3.80;99.90;;;;;;8381251;28;19925;-68
2021/12/09 23:46:23;;;;;;;;;;;3.80;99.90;;;;;;8383219;28;19939;-69
2021/12/09 23:50:25;;;;;;;;;;;3.80;99.90;;;;;;8385762;28;20074;-68
2021/12/09 23:54:27;;;;;;;;;;;3.70;99.90;;;;;;8389399;28;19978;-68
2021/12/09 23:58:29;;;;;;;;;;;3.70;99.90;;;;;;8367504;28;19939;-69
